createdAt,value
2018-12-01T00:00:21.115Z,21.63
2018-12-01T00:02:49.666Z,21.10
2018-12-01T00:05:17.904Z,21.87
2018-12-01T00:07:46.053Z,22.53
2018-12-01T00:10:14.203Z,21.13
2018-12-01T00:12:42.309Z,22.43
2018-12-01T00:15:11.790Z,22.47
2018-12-01T00:17:39.926Z,23.27
2018-12-01T00:20:14.005Z,22.53
2018-12-01T00:22:42.093Z,22.43
2018-12-01T00:25:10.241Z,22.60
2018-12-01T00:27:38.326Z,21.63
2018-12-01T00:30:11.106Z,22.77
2018-12-01T00:32:39.198Z,20.93
2018-12-01T00:35:08.680Z,21.60
2018-12-01T00:37:36.823Z,21.73
2018-12-01T00:40:07.569Z,22.73
2018-12-01T00:42:35.640Z,22.27
2018-12-01T00:45:03.935Z,21.57
2018-12-01T00:47:32.145Z,22.03
2018-12-01T00:50:00.270Z,22.37
2018-12-01T00:52:28.445Z,21.40
2018-12-01T00:54:56.574Z,22.77
2018-12-01T00:57:24.657Z,27.43
2018-12-01T00:59:52.978Z,25.67
2018-12-01T01:02:26.792Z,23.77
2018-12-01T01:04:54.910Z,22.80
2018-12-01T01:07:23.033Z,22.67
2018-12-01T01:09:51.133Z,21.63
2018-12-01T01:12:19.240Z,21.43
2018-12-01T01:14:47.333Z,21.70
2018-12-01T01:17:15.908Z,21.90
2018-12-01T01:19:44.085Z,21.50
2018-12-01T01:22:12.173Z,22.47
2018-12-01T01:24:40.230Z,21.47
2018-12-01T01:27:08.378Z,21.73
2018-12-01T01:29:36.465Z,21.50
2018-12-01T01:32:04.963Z,22.63
2018-12-01T01:34:33.058Z,21.37
2018-12-01T01:37:01.164Z,20.67
2018-12-01T01:39:29.266Z,21.87
2018-12-01T01:41:57.356Z,20.97
2018-12-01T01:44:25.415Z,21.60
2018-12-01T01:46:53.489Z,20.90
2018-12-01T01:49:21.650Z,21.40
2018-12-01T01:51:49.798Z,21.27
2018-12-01T01:54:17.898Z,20.70
2018-12-01T01:56:46.033Z,21.50
2018-12-01T01:59:14.108Z,20.60
2018-12-01T02:01:42.246Z,21.77
2018-12-01T02:04:10.356Z,21.50
2018-12-01T02:06:38.454Z,21.27
2018-12-01T02:09:07.962Z,21.60
2018-12-01T02:11:36.060Z,20.90
2018-12-01T02:14:04.154Z,22.47
2018-12-01T02:16:32.225Z,23.20
2018-12-01T02:19:00.313Z,22.07
2018-12-01T02:21:28.482Z,22.10
2018-12-01T02:23:56.555Z,21.70
2018-12-01T02:26:24.626Z,22.63
2018-12-01T02:28:52.700Z,23.37
2018-12-01T02:31:20.866Z,22.33
2018-12-01T02:33:48.971Z,21.90
2018-12-01T02:36:17.037Z,21.80
2018-12-01T02:38:45.121Z,24.07
2018-12-01T02:41:13.209Z,22.80
2018-12-01T02:43:41.297Z,22.63
2018-12-01T02:46:21.147Z,23.30
2018-12-01T02:48:49.271Z,23.63
2018-12-01T02:51:17.360Z,23.87
2018-12-01T02:53:45.514Z,23.63
2018-12-01T02:56:13.593Z,23.87
2018-12-01T02:58:41.758Z,24.53
2018-12-01T03:01:09.949Z,22.87
2018-12-01T03:03:38.044Z,24.47
2018-12-01T03:06:06.165Z,24.63
2018-12-01T03:08:34.262Z,25.10
2018-12-01T03:11:02.345Z,24.23
2018-12-01T03:13:30.902Z,25.67
2018-12-01T03:15:59.351Z,23.87
2018-12-01T03:18:27.585Z,25.03
2018-12-01T03:20:56.118Z,24.67
2018-12-01T03:23:24.253Z,25.53
2018-12-01T03:25:55.507Z,23.77
2018-12-01T03:28:23.610Z,26.40
2018-12-01T03:30:51.706Z,26.47
2018-12-01T03:33:19.794Z,25.70
2018-12-01T03:35:47.867Z,26.20
2018-12-01T03:38:15.939Z,27.43
2018-12-01T03:40:47.911Z,26.07
2018-12-01T03:43:16.323Z,26.13
2018-12-01T03:45:44.388Z,24.90
2018-12-01T03:48:12.462Z,24.83
2018-12-01T03:50:40.546Z,24.93
2018-12-01T03:53:09.448Z,26.00
2018-12-01T03:55:37.574Z,25.90
2018-12-01T03:58:05.666Z,26.17
2018-12-01T04:00:34.501Z,25.90
2018-12-01T04:03:03.299Z,25.23
2018-12-01T04:05:31.621Z,26.43
2018-12-01T04:07:59.728Z,26.30
2018-12-01T04:10:28.246Z,27.57
2018-12-01T04:12:56.494Z,28.23
2018-12-01T04:15:25.040Z,29.23
2018-12-01T04:17:53.183Z,28.03
2018-12-01T04:20:21.393Z,29.90
2018-12-01T04:22:49.480Z,29.67
2018-12-01T04:25:17.572Z,30.60
2018-12-01T04:27:45.645Z,29.67
2018-12-01T04:30:21.619Z,29.13
2018-12-01T04:32:49.706Z,28.60
2018-12-01T04:35:18.650Z,29.83
2018-12-01T04:37:47.637Z,30.00
2018-12-01T04:40:15.796Z,29.20
2018-12-01T04:42:44.714Z,27.27
2018-12-01T04:45:12.846Z,29.40
2018-12-01T04:47:40.948Z,28.07
2018-12-01T04:50:10.451Z,29.43
2018-12-01T04:52:38.541Z,29.03
2018-12-01T04:55:08.570Z,29.40
2018-12-01T04:57:36.898Z,29.33
2018-12-01T05:00:13.072Z,28.00
2018-12-01T05:02:41.278Z,30.17
2018-12-01T05:05:10.761Z,30.37
2018-12-01T05:07:38.919Z,31.47
2018-12-01T05:10:09.296Z,29.77
2018-12-01T05:12:37.401Z,30.13
2018-12-01T05:15:07.983Z,31.43
2018-12-01T05:17:36.040Z,32.37
2018-12-01T05:20:06.583Z,32.03
2018-12-01T05:22:34.702Z,33.03
2018-12-01T05:25:02.827Z,32.40
2018-12-01T05:27:30.898Z,31.57
2018-12-01T05:29:59.035Z,33.47
2018-12-01T05:32:27.205Z,32.93
2018-12-01T05:34:55.382Z,31.90
2018-12-01T05:37:23.476Z,30.80
2018-12-01T05:39:51.589Z,32.47
2018-12-01T05:42:19.694Z,31.63
2018-12-01T05:44:48.541Z,32.23
2018-12-01T05:47:16.644Z,31.57
2018-12-01T05:49:44.726Z,32.10
2018-12-01T05:52:12.798Z,32.37
2018-12-01T05:54:40.890Z,32.87
2018-12-01T05:57:08.992Z,32.53
2018-12-01T05:59:37.126Z,30.53
2018-12-01T06:02:05.548Z,31.03
2018-12-01T06:04:33.661Z,33.40
2018-12-01T06:07:01.785Z,32.10
2018-12-01T06:09:29.947Z,32.53
2018-12-01T06:11:58.085Z,33.40
2018-12-01T06:14:26.204Z,32.50
2018-12-01T06:16:54.346Z,31.60
2018-12-01T06:19:22.468Z,31.33
2018-12-01T06:21:50.520Z,32.30
2018-12-01T06:24:18.631Z,29.57
2018-12-01T06:26:46.785Z,30.07
2018-12-01T06:29:14.959Z,30.87
2018-12-01T06:31:43.077Z,30.63
2018-12-01T06:34:11.190Z,31.13
2018-12-01T06:36:39.520Z,31.13
2018-12-01T06:39:08.185Z,32.00
2018-12-01T06:41:36.274Z,32.13
2018-12-01T06:44:04.361Z,31.07
2018-12-01T06:46:32.523Z,30.50
2018-12-01T06:49:00.692Z,30.23
2018-12-01T06:51:28.797Z,31.67
2018-12-01T06:53:56.926Z,30.07
2018-12-01T06:56:25.113Z,30.77
2018-12-01T06:58:53.224Z,28.90
2018-12-01T07:01:21.324Z,30.50
2018-12-01T07:03:49.401Z,31.13
2018-12-01T07:06:17.529Z,30.20
2018-12-01T07:08:45.639Z,32.27
2018-12-01T07:11:13.835Z,31.03
2018-12-01T07:13:41.926Z,30.77
2018-12-01T07:16:10.034Z,29.93
2018-12-01T07:18:49.716Z,31.30
2018-12-01T07:21:17.865Z,28.43
2018-12-01T07:23:45.999Z,30.43
2018-12-01T07:26:14.129Z,30.47
2018-12-01T07:28:42.229Z,30.23
2018-12-01T07:31:10.366Z,29.60
2018-12-01T07:33:38.455Z,30.03
2018-12-01T07:36:06.642Z,33.00
2018-12-01T07:38:34.773Z,29.93
2018-12-01T07:41:02.909Z,28.67
2018-12-01T07:43:31.015Z,27.77
2018-12-01T07:45:59.110Z,29.30
2018-12-01T07:48:27.250Z,27.97
2018-12-01T07:50:55.373Z,30.63
2018-12-01T07:53:23.471Z,29.93
2018-12-01T07:55:51.602Z,29.80
2018-12-01T07:58:19.766Z,29.17
2018-12-01T08:00:47.866Z,29.40
2018-12-01T08:03:15.994Z,29.63
2018-12-01T08:05:44.101Z,29.20
2018-12-01T08:08:12.193Z,28.17
2018-12-01T08:10:40.317Z,30.03
2018-12-01T08:13:08.405Z,30.10
2018-12-01T08:15:36.509Z,28.70
2018-12-01T08:18:04.653Z,28.70
2018-12-01T08:20:32.759Z,28.27
2018-12-01T08:23:00.891Z,28.87
2018-12-01T08:25:28.976Z,29.00
2018-12-01T08:27:57.778Z,28.90
2018-12-01T08:30:29.081Z,28.03
2018-12-01T08:32:57.245Z,29.47
2018-12-01T08:35:26.821Z,28.63
2018-12-01T08:37:54.967Z,29.77
2018-12-01T08:40:24.596Z,29.17
2018-12-01T08:42:52.700Z,28.30
2018-12-01T08:45:20.802Z,27.40
2018-12-01T08:47:48.880Z,29.73
2018-12-01T08:50:18.174Z,28.83
2018-12-01T08:52:46.290Z,27.93
2018-12-01T08:55:15.462Z,27.90
2018-12-01T08:57:43.574Z,28.63
2018-12-01T09:00:15.825Z,27.40
2018-12-01T09:02:44.882Z,28.17
2018-12-01T09:05:12.966Z,27.57
2018-12-01T09:07:41.114Z,29.93
2018-12-01T09:10:10.058Z,28.50
2018-12-01T09:12:38.223Z,28.00
2018-12-01T09:15:08.827Z,29.50
2018-12-01T09:17:37.545Z,28.50
2018-12-01T09:20:07.838Z,29.20
2018-12-01T09:22:35.938Z,29.53
2018-12-01T09:25:04.333Z,28.77
2018-12-01T09:27:32.426Z,28.43
2018-12-01T09:30:00.560Z,29.17
2018-12-01T09:32:28.649Z,28.33
2018-12-01T09:34:56.957Z,27.13
2018-12-01T09:37:25.073Z,27.03
2018-12-01T09:39:53.204Z,29.03
2018-12-01T09:42:24.783Z,26.00
2018-12-01T09:44:49.473Z,27.10
2018-12-01T09:47:17.688Z,26.80
2018-12-01T09:49:45.864Z,27.50
2018-12-01T09:52:13.933Z,26.70
2018-12-01T09:54:42.111Z,26.40
2018-12-01T09:57:10.220Z,26.63
2018-12-01T09:59:38.322Z,27.63
2018-12-01T10:02:06.403Z,28.67
2018-12-01T10:04:34.495Z,26.77
2018-12-01T10:07:03.122Z,27.57
2018-12-01T10:09:30.810Z,26.70
2018-12-01T10:11:58.913Z,27.63
2018-12-01T10:14:27.090Z,26.90
2018-12-01T10:16:55.270Z,28.27
2018-12-01T10:19:23.401Z,27.23
2018-12-01T10:21:51.556Z,28.97
2018-12-01T10:24:19.725Z,27.67
2018-12-01T10:26:47.934Z,26.23
2018-12-01T10:29:16.019Z,26.17
2018-12-01T10:31:44.180Z,25.90
2018-12-01T10:34:12.334Z,26.70
2018-12-01T10:36:40.394Z,26.60
2018-12-01T10:39:09.399Z,26.33
2018-12-01T10:41:37.475Z,26.43
2018-12-01T10:44:05.938Z,25.73
2018-12-01T10:46:34.003Z,26.57
2018-12-01T10:49:02.089Z,26.47
2018-12-01T10:51:30.180Z,26.27
2018-12-01T10:53:58.277Z,24.57
2018-12-01T10:56:26.343Z,24.40
2018-12-01T10:58:54.482Z,24.87
2018-12-01T11:01:28.037Z,24.20
2018-12-01T11:03:56.357Z,23.43
2018-12-01T11:06:24.474Z,22.80
2018-12-01T11:08:52.573Z,23.43
2018-12-01T11:11:20.665Z,24.83
2018-12-01T11:13:48.758Z,22.97
2018-12-01T11:16:16.931Z,22.00
2018-12-01T11:18:45.044Z,22.50
2018-12-01T11:21:13.120Z,24.07
2018-12-01T11:23:41.190Z,22.50
2018-12-01T11:26:09.334Z,22.20
2018-12-01T11:28:37.413Z,22.13
2018-12-01T11:31:05.781Z,22.90
2018-12-01T11:33:33.865Z,22.30
2018-12-01T11:36:01.970Z,21.50
2018-12-01T11:38:30.076Z,21.97
2018-12-01T11:41:05.648Z,23.23
2018-12-01T11:43:33.765Z,22.50
2018-12-01T11:46:01.871Z,22.43
2018-12-01T11:48:29.990Z,21.97
2018-12-01T11:50:58.098Z,23.47
2018-12-01T11:53:26.165Z,22.07
2018-12-01T11:55:54.262Z,21.17
2018-12-01T11:58:22.410Z,22.23
2018-12-01T12:00:50.561Z,21.93
2018-12-01T12:03:18.657Z,21.17
2018-12-01T12:05:46.738Z,20.63
2018-12-01T12:08:20.257Z,22.17
2018-12-01T12:10:48.362Z,21.87
2018-12-01T12:13:16.456Z,20.43
2018-12-01T12:15:44.877Z,20.40
2018-12-01T12:18:13.355Z,20.80
2018-12-01T12:20:41.505Z,20.37
2018-12-01T12:23:09.552Z,20.13
2018-12-01T12:25:37.641Z,22.20
2018-12-01T12:28:06.194Z,20.43
2018-12-01T12:30:34.360Z,21.20
2018-12-01T12:33:02.540Z,20.20
2018-12-01T12:35:30.756Z,19.93
2018-12-01T12:37:58.901Z,20.57
2018-12-01T12:40:27.359Z,20.93
2018-12-01T12:42:56.581Z,19.80
2018-12-01T12:45:24.765Z,19.83
2018-12-01T12:47:52.873Z,20.10
2018-12-01T12:50:21.021Z,21.13
2018-12-01T12:52:50.903Z,20.30
2018-12-01T12:55:21.040Z,20.93
2018-12-01T12:57:49.292Z,20.77
2018-12-01T13:00:18.309Z,19.77
2018-12-01T13:02:52.429Z,20.67
2018-12-01T13:05:21.968Z,19.60
2018-12-01T13:07:50.079Z,20.93
2018-12-01T13:10:19.398Z,19.20
2018-12-01T13:12:47.508Z,20.37
2018-12-01T13:15:16.161Z,19.70
2018-12-01T13:17:44.783Z,19.00
2018-12-01T13:20:16.582Z,20.97
2018-12-01T13:22:45.434Z,20.23
2018-12-01T13:25:14.425Z,20.30
2018-12-01T13:27:46.187Z,19.63
2018-12-01T13:30:15.796Z,20.00
2018-12-01T13:32:43.932Z,19.60
2018-12-01T13:35:12.051Z,20.03
2018-12-01T13:37:40.243Z,19.77
2018-12-01T13:40:12.493Z,19.37
2018-12-01T13:42:40.607Z,20.90
2018-12-01T13:45:10.119Z,18.67
2018-12-01T13:50:14.783Z,21.37
2018-12-01T13:52:44.215Z,19.23
2018-12-01T13:55:12.335Z,19.77
2018-12-01T13:57:40.476Z,20.87
2018-12-01T14:00:12.834Z,20.43
2018-12-01T14:02:41.040Z,20.83
2018-12-01T14:05:11.125Z,20.83
2018-12-01T14:07:39.398Z,20.80
2018-12-01T14:10:12.021Z,19.50
2018-12-01T14:12:40.105Z,20.47
2018-12-01T14:15:11.674Z,20.13
2018-12-01T14:17:40.364Z,21.23
2018-12-01T14:20:09.802Z,20.60
2018-12-01T14:22:37.952Z,20.70
2018-12-01T14:25:07.925Z,19.53
2018-12-01T14:27:37.007Z,22.00
2018-12-01T14:30:09.350Z,21.90
2018-12-01T14:32:37.542Z,22.03
2018-12-01T14:35:09.586Z,21.03
2018-12-01T14:37:37.663Z,21.63
2018-12-01T14:40:08.973Z,22.87
2018-12-01T14:42:37.087Z,19.97
2018-12-01T14:45:07.676Z,20.37
2018-12-01T14:47:35.891Z,21.37
2018-12-01T14:50:05.629Z,22.77
2018-12-01T14:52:34.133Z,19.80
2018-12-01T14:55:02.297Z,20.13
2018-12-01T14:57:30.410Z,21.37
2018-12-01T14:59:58.498Z,20.90
2018-12-01T15:02:26.670Z,22.27
2018-12-01T15:04:54.830Z,22.40
2018-12-01T15:07:22.944Z,21.97
2018-12-01T15:09:51.079Z,23.17
2018-12-01T15:12:19.216Z,22.20
2018-12-01T15:14:47.452Z,22.03
2018-12-01T15:17:15.573Z,23.03
2018-12-01T15:19:43.806Z,22.63
2018-12-01T15:22:11.878Z,23.00
2018-12-01T15:24:40.019Z,23.50
2018-12-01T15:27:08.138Z,22.97
2018-12-01T15:29:36.294Z,21.60
2018-12-01T15:32:04.409Z,22.83
2018-12-01T15:34:32.549Z,23.57
2018-12-01T15:37:00.685Z,23.43
2018-12-01T15:39:29.216Z,23.37
2018-12-01T15:41:57.344Z,22.87
2018-12-01T15:44:25.512Z,22.77
2018-12-01T15:46:54.321Z,23.07
2018-12-01T15:49:22.472Z,25.33
2018-12-01T15:51:51.015Z,23.37
2018-12-01T15:54:19.252Z,22.87
2018-12-01T15:56:47.350Z,24.13
2018-12-01T15:59:15.460Z,24.93
2018-12-01T16:01:43.603Z,24.03
2018-12-01T16:04:11.826Z,24.10
2018-12-01T16:09:14.471Z,23.50
2018-12-01T16:11:42.627Z,23.40
2018-12-01T16:14:10.883Z,23.77
2018-12-01T16:16:39.049Z,23.83
2018-12-01T16:19:07.398Z,24.33
2018-12-01T16:21:35.575Z,23.17
2018-12-01T16:24:03.659Z,22.07
2018-12-01T16:26:31.762Z,23.03
2018-12-01T16:28:59.924Z,23.03
2018-12-01T16:31:28.171Z,22.57
2018-12-01T16:33:56.269Z,23.17
2018-12-01T16:36:24.430Z,22.40
2018-12-01T16:38:52.538Z,22.33
2018-12-01T16:41:22.705Z,23.10
2018-12-01T16:43:50.833Z,22.30
2018-12-01T16:46:18.931Z,22.27
2018-12-01T16:48:47.057Z,22.77
2018-12-01T16:51:15.165Z,21.53
2018-12-01T16:53:43.306Z,22.03
2018-12-01T16:56:11.826Z,22.53
2018-12-01T16:58:40.395Z,20.87
2018-12-01T17:01:08.525Z,21.03
2018-12-01T17:03:37.635Z,20.43
2018-12-01T17:06:09.883Z,21.00
2018-12-01T17:08:38.018Z,21.20
2018-12-01T17:11:07.636Z,23.17
2018-12-01T17:13:35.826Z,20.70
2018-12-01T17:16:04.363Z,19.17
2018-12-01T17:18:32.534Z,18.93
2018-12-01T17:21:00.712Z,18.63
2018-12-01T17:23:28.917Z,18.37
2018-12-01T17:25:57.006Z,18.27
2018-12-01T17:28:25.123Z,17.60
2018-12-01T17:30:53.242Z,18.00
2018-12-01T17:33:21.378Z,18.67
2018-12-01T17:35:49.513Z,17.60
2018-12-01T17:38:19.227Z,16.43
2018-12-01T17:40:52.145Z,16.47
2018-12-01T17:43:23.602Z,17.93
2018-12-01T17:45:52.059Z,16.13
2018-12-01T17:48:20.183Z,15.67
2018-12-01T17:50:48.365Z,14.33
2018-12-01T17:53:16.548Z,15.47
2018-12-01T17:55:44.808Z,14.67
2018-12-01T17:58:13.048Z,14.67
2018-12-01T18:00:41.465Z,15.43
2018-12-01T18:03:09.585Z,15.43
2018-12-01T18:05:43.116Z,15.47
2018-12-01T18:08:17.638Z,15.30
2018-12-01T18:10:46.870Z,15.27
2018-12-01T18:13:14.992Z,15.10
2018-12-01T18:15:43.192Z,15.13
2018-12-01T18:18:11.367Z,14.10
2018-12-01T18:20:39.475Z,15.50
2018-12-01T18:23:09.130Z,15.27
2018-12-01T18:25:39.799Z,14.37
2018-12-01T18:28:08.978Z,14.33
2018-12-01T18:30:38.341Z,13.60
2018-12-01T18:33:11.816Z,13.40
2018-12-01T18:35:40.104Z,13.40
2018-12-01T18:38:09.257Z,14.13
2018-12-01T18:40:37.589Z,12.53
2018-12-01T18:43:06.283Z,13.67
2018-12-01T18:45:34.516Z,13.53
2018-12-01T18:48:02.594Z,13.87
2018-12-01T18:50:30.756Z,13.33
2018-12-01T18:53:00.010Z,12.17
2018-12-01T18:55:29.603Z,13.07
2018-12-01T18:57:57.738Z,13.93
2018-12-01T19:00:29.704Z,13.10
2018-12-01T19:02:57.817Z,12.63
2018-12-01T19:05:25.947Z,12.40
2018-12-01T19:07:54.121Z,13.10
2018-12-01T19:10:22.236Z,12.93
2018-12-01T19:12:50.446Z,13.57
2018-12-01T19:15:18.725Z,15.67
2018-12-01T19:17:48.075Z,13.90
2018-12-01T19:20:17.362Z,14.80
2018-12-01T19:22:46.882Z,13.40
2018-12-01T19:25:17.090Z,14.00
2018-12-01T19:27:45.291Z,14.17
2018-12-01T19:30:15.433Z,13.30
2018-12-01T19:32:46.126Z,12.60
2018-12-01T19:35:15.193Z,12.60
2018-12-01T19:37:44.613Z,10.97
2018-12-01T19:40:14.990Z,12.00
2018-12-01T19:42:44.434Z,12.43
2018-12-01T19:45:12.647Z,12.40
2018-12-01T19:47:40.803Z,10.20
2018-12-01T19:50:14.900Z,10.70
2018-12-01T19:52:43.031Z,10.87
2018-12-01T19:55:12.201Z,10.43
2018-12-01T19:57:42.390Z,12.97
2018-12-01T20:00:13.154Z,11.80
2018-12-01T20:02:42.415Z,12.13
2018-12-01T20:05:11.849Z,12.03
2018-12-01T20:07:40.005Z,12.47
2018-12-01T20:10:11.957Z,11.40
2018-12-01T20:12:40.277Z,12.10
2018-12-01T20:15:12.341Z,12.10
2018-12-01T20:17:40.433Z,11.90
2018-12-01T20:20:08.644Z,11.83
2018-12-01T20:22:36.756Z,13.13
2018-12-01T20:25:06.150Z,13.70
2018-12-01T20:27:34.387Z,12.40
2018-12-01T20:30:02.572Z,12.07
2018-12-01T20:32:30.740Z,12.23
2018-12-01T20:34:58.837Z,11.67
2018-12-01T20:37:26.988Z,11.87
2018-12-01T20:39:55.606Z,11.20
2018-12-01T20:42:23.704Z,10.00
2018-12-01T20:44:51.989Z,10.70
2018-12-01T20:47:21.790Z,9.97
2018-12-01T20:49:50.242Z,9.80
2018-12-01T20:52:18.338Z,9.53
2018-12-01T20:54:46.996Z,9.47
2018-12-01T20:57:18.951Z,8.90
2018-12-01T20:59:47.047Z,9.63
2018-12-01T21:02:15.154Z,9.70
2018-12-01T21:04:43.305Z,10.13
2018-12-01T21:07:11.414Z,9.80
2018-12-01T21:09:39.579Z,9.93
2018-12-01T21:12:08.681Z,10.40
2018-12-01T21:14:36.792Z,10.20
2018-12-01T21:17:04.922Z,9.57
2018-12-01T21:19:33.173Z,10.20
2018-12-01T21:22:01.285Z,10.33
2018-12-01T21:24:29.381Z,11.00
2018-12-01T21:26:57.451Z,10.47
2018-12-01T21:29:25.585Z,11.00
2018-12-01T21:31:53.817Z,10.73
2018-12-01T21:34:22.031Z,10.17
2018-12-01T21:36:50.224Z,10.57
2018-12-01T21:39:18.323Z,9.97
2018-12-01T21:41:46.854Z,11.40
2018-12-01T21:44:15.042Z,10.30
2018-12-01T21:46:43.170Z,10.73
2018-12-01T21:49:11.321Z,11.50
2018-12-01T21:51:40.743Z,11.60
2018-12-01T21:54:08.034Z,10.27
2018-12-01T21:56:36.313Z,10.77
2018-12-01T21:59:04.414Z,10.20
2018-12-01T22:01:32.549Z,11.23
2018-12-01T22:04:01.074Z,11.67
2018-12-01T22:06:29.212Z,11.60
2018-12-01T22:08:57.312Z,12.90
2018-12-01T22:11:25.426Z,12.23
2018-12-01T22:13:53.751Z,13.40
2018-12-01T22:16:22.104Z,13.03
2018-12-01T22:18:52.224Z,13.10
2018-12-01T22:21:21.206Z,14.07
2018-12-01T22:23:50.792Z,13.67
2018-12-01T22:26:19.125Z,13.83
2018-12-01T22:28:47.514Z,14.67
2018-12-01T22:31:15.728Z,14.53
2018-12-01T22:33:43.826Z,14.17
2018-12-01T22:36:11.964Z,14.30
2018-12-01T22:38:40.149Z,14.93
2018-12-01T22:41:08.953Z,14.40
2018-12-01T22:43:37.115Z,14.27
2018-12-01T22:46:05.519Z,14.63
2018-12-01T22:48:33.538Z,13.97
2018-12-01T22:51:01.610Z,14.30
2018-12-01T22:53:29.765Z,15.00
2018-12-01T22:55:57.839Z,14.37
2018-12-01T22:58:26.147Z,15.43
2018-12-01T23:00:56.750Z,15.80
2018-12-01T23:03:26.002Z,15.40
2018-12-01T23:05:54.140Z,14.37
2018-12-01T23:08:23.505Z,14.53
2018-12-01T23:10:51.616Z,13.57
2018-12-01T23:13:19.886Z,13.53
2018-12-01T23:15:48.162Z,14.10
2018-12-01T23:18:17.643Z,13.70
2018-12-01T23:20:46.582Z,12.90
2018-12-01T23:23:14.723Z,13.13
2018-12-01T23:25:42.797Z,12.57
2018-12-01T23:28:10.868Z,12.73
2018-12-01T23:30:39.992Z,13.33
2018-12-01T23:33:09.601Z,12.77
2018-12-01T23:35:37.815Z,13.93
2018-12-01T23:38:05.967Z,13.30
2018-12-01T23:40:34.100Z,13.30
2018-12-01T23:43:02.278Z,13.93
2018-12-01T23:45:30.754Z,14.67
2018-12-01T23:47:58.855Z,13.83
2018-12-01T23:50:27.215Z,13.80
2018-12-01T23:52:59.767Z,12.63
2018-12-01T23:55:27.919Z,14.37
2018-12-01T23:57:56.093Z,14.20
